sensor_id;sensor_type;location;lat;lon;timestamp;P1;P2;P0
54021;PMS7003;39936;51.058;17.220;2022-12-18T00:00:04;32;23;13
54021;PMS7003;39936;51.058;17.220;2022-12-18T00:04:05;27;21;12
54021;PMS7003;39936;51.058;17.220;2022-12-18T00:08:10;27;24;13
54021;PMS7003;39936;51.058;17.220;2022-12-18T00:11:42;24;19;11
54021;PMS7003;39936;51.058;17.220;2022-12-18T00:15:19;20;18;11
54021;PMS7003;39936;51.058;17.220;2022-12-18T00:19:06;15;12;6
54021;PMS7003;39936;51.058;17.220;2022-12-18T00:22:35;21;13;5
54021;PMS7003;39936;51.058;17.220;2022-12-18T00:30:02;30;24;13
54021;PMS7003;39936;51.058;17.220;2022-12-18T00:33:52;23;19;12
54021;PMS7003;39936;51.058;17.220;2022-12-18T00:37:37;29;21;13
54021;PMS7003;39936;51.058;17.220;2022-12-18T00:41:28;29;19;10
54021;PMS7003;39936;51.058;17.220;2022-12-18T00:45:38;21;16;8
54021;PMS7003;39936;51.058;17.220;2022-12-18T00:49:45;17;14;9
54021;PMS7003;39936;51.058;17.220;2022-12-18T00:53:21;17;13;8
54021;PMS7003;39936;51.058;17.220;2022-12-18T00:57:01;24;19;11
54021;PMS7003;39936;51.058;17.220;2022-12-18T01:00:45;20;16;9
54021;PMS7003;39936;51.058;17.220;2022-12-18T01:04:26;26;22;11
54021;PMS7003;39936;51.058;17.220;2022-12-18T01:07:48;23;16;10
54021;PMS7003;39936;51.058;17.220;2022-12-18T01:15:15;24;18;9
54021;PMS7003;39936;51.058;17.220;2022-12-18T01:18:50;30;20;11
54021;PMS7003;39936;51.058;17.220;2022-12-18T01:22:35;28;21;11
54021;PMS7003;39936;51.058;17.220;2022-12-18T01:26:33;27;17;8
54021;PMS7003;39936;51.058;17.220;2022-12-18T01:30:07;23;18;9
54021;PMS7003;39936;51.058;17.220;2022-12-18T01:33:31;30;23;13
54021;PMS7003;39936;51.058;17.220;2022-12-18T01:37:01;29;23;12
54021;PMS7003;39936;51.058;17.220;2022-12-18T01:40:11;11;11;7
54021;PMS7003;39936;51.058;17.220;2022-12-18T01:52:16;32;25;15
54021;PMS7003;39936;51.058;17.220;2022-12-18T01:56:04;32;23;12
54021;PMS7003;39936;51.058;17.220;2022-12-18T01:59:39;22;20;9
54021;PMS7003;39936;51.058;17.220;2022-12-18T02:03:32;23;18;9
54021;PMS7003;39936;51.058;17.220;2022-12-18T02:18:22;28;22;12
54021;PMS7003;39936;51.058;17.220;2022-12-18T02:29:50;38;26;13
54021;PMS7003;39936;51.058;17.220;2022-12-18T02:33:11;29;20;11
54021;PMS7003;39936;51.058;17.220;2022-12-18T02:37:11;26;21;12
54021;PMS7003;39936;51.058;17.220;2022-12-18T02:41:28;22;17;10
54021;PMS7003;39936;51.058;17.220;2022-12-18T02:44:51;30;22;12
54021;PMS7003;39936;51.058;17.220;2022-12-18T02:48:22;28;19;10
54021;PMS7003;39936;51.058;17.220;2022-12-18T02:52:52;19;15;9
54021;PMS7003;39936;51.058;17.220;2022-12-18T02:56:30;26;20;11
54021;PMS7003;39936;51.058;17.220;2022-12-18T03:07:34;22;18;10
54021;PMS7003;39936;51.058;17.220;2022-12-18T03:11:31;26;20;12
54021;PMS7003;39936;51.058;17.220;2022-12-18T03:15:30;20;17;11
54021;PMS7003;39936;51.058;17.220;2022-12-18T03:19:11;25;21;12
54021;PMS7003;39936;51.058;17.220;2022-12-18T03:23:03;33;22;11
54021;PMS7003;39936;51.058;17.220;2022-12-18T03:27:03;29;20;10
54021;PMS7003;39936;51.058;17.220;2022-12-18T03:30:56;21;19;12
54021;PMS7003;39936;51.058;17.220;2022-12-18T03:34:43;31;24;12
54021;PMS7003;39936;51.058;17.220;2022-12-18T03:38:04;26;23;14
54021;PMS7003;39936;51.058;17.220;2022-12-18T03:46:02;29;24;12
54021;PMS7003;39936;51.058;17.220;2022-12-18T04:00:31;30;24;15
54021;PMS7003;39936;51.058;17.220;2022-12-18T04:04:34;25;18;12
54021;PMS7003;39936;51.058;17.220;2022-12-18T04:08:24;33;25;13
54021;PMS7003;39936;51.058;17.220;2022-12-18T04:11:48;21;19;14
54021;PMS7003;39936;51.058;17.220;2022-12-18T04:14:57;29;21;12
54021;PMS7003;39936;51.058;17.220;2022-12-18T04:18:31;29;22;12
54021;PMS7003;39936;51.058;17.220;2022-12-18T04:22:05;31;24;12
54021;PMS7003;39936;51.058;17.220;2022-12-18T04:25:51;28;21;13
54021;PMS7003;39936;51.058;17.220;2022-12-18T04:29:18;29;24;11
54021;PMS7003;39936;51.058;17.220;2022-12-18T04:32:48;23;16;10
54021;PMS7003;39936;51.058;17.220;2022-12-18T04:36:20;37;23;13
54021;PMS7003;39936;51.058;17.220;2022-12-18T04:40:33;28;23;13
54021;PMS7003;39936;51.058;17.220;2022-12-18T04:43:59;27;22;13
54021;PMS7003;39936;51.058;17.220;2022-12-18T04:47:39;31;23;14
54021;PMS7003;39936;51.058;17.220;2022-12-18T04:51:14;28;22;13
54021;PMS7003;39936;51.058;17.220;2022-12-18T04:54:29;27;20;13
54021;PMS7003;39936;51.058;17.220;2022-12-18T04:57:44;28;26;14
54021;PMS7003;39936;51.058;17.220;2022-12-18T05:01:15;32;24;14
54021;PMS7003;39936;51.058;17.220;2022-12-18T05:05:07;24;20;11
54021;PMS7003;39936;51.058;17.220;2022-12-18T05:08:33;29;22;13
54021;PMS7003;39936;51.058;17.220;2022-12-18T05:11:43;24;18;10
54021;PMS7003;39936;51.058;17.220;2022-12-18T05:14:55;25;18;11
54021;PMS7003;39936;51.058;17.220;2022-12-18T05:18:23;24;19;11
54021;PMS7003;39936;51.058;17.220;2022-12-18T05:21:37;27;19;11
54021;PMS7003;39936;51.058;17.220;2022-12-18T05:25:20;28;24;14
54021;PMS7003;39936;51.058;17.220;2022-12-18T05:29:41;32;25;14
54021;PMS7003;39936;51.058;17.220;2022-12-18T05:33:09;27;17;11
54021;PMS7003;39936;51.058;17.220;2022-12-18T05:37:06;25;21;13
54021;PMS7003;39936;51.058;17.220;2022-12-18T05:41:09;21;19;12
54021;PMS7003;39936;51.058;17.220;2022-12-18T05:45:03;27;20;14
54021;PMS7003;39936;51.058;17.220;2022-12-18T05:48:37;25;19;11
54021;PMS7003;39936;51.058;17.220;2022-12-18T05:52:19;35;24;13
54021;PMS7003;39936;51.058;17.220;2022-12-18T05:55:50;31;24;13
54021;PMS7003;39936;51.058;17.220;2022-12-18T05:59:00;25;19;12
54021;PMS7003;39936;51.058;17.220;2022-12-18T06:02:29;33;25;13
54021;PMS7003;39936;51.058;17.220;2022-12-18T06:05:47;30;22;13
54021;PMS7003;39936;51.058;17.220;2022-12-18T06:08:59;32;25;15
54021;PMS7003;39936;51.058;17.220;2022-12-18T06:12:36;28;22;12
54021;PMS7003;39936;51.058;17.220;2022-12-18T06:16:12;28;24;15
54021;PMS7003;39936;51.058;17.220;2022-12-18T06:19:35;24;21;11
54021;PMS7003;39936;51.058;17.220;2022-12-18T06:23:32;34;28;16
54021;PMS7003;39936;51.058;17.220;2022-12-18T06:26:45;37;28;17
54021;PMS7003;39936;51.058;17.220;2022-12-18T06:35:18;36;30;18
54021;PMS7003;39936;51.058;17.220;2022-12-18T06:38:30;35;28;15
54021;PMS7003;39936;51.058;17.220;2022-12-18T06:42:35;44;28;17
54021;PMS7003;39936;51.058;17.220;2022-12-18T06:46:35;32;26;16
54021;PMS7003;39936;51.058;17.220;2022-12-18T06:49:46;35;28;18
54021;PMS7003;39936;51.058;17.220;2022-12-18T06:53:15;34;28;15
54021;PMS7003;39936;51.058;17.220;2022-12-18T06:56:40;32;23;16
54021;PMS7003;39936;51.058;17.220;2022-12-18T07:00:30;42;31;19
54021;PMS7003;39936;51.058;17.220;2022-12-18T07:04:13;40;36;21
54021;PMS7003;39936;51.058;17.220;2022-12-18T07:07:54;42;34;20
54021;PMS7003;39936;51.058;17.220;2022-12-18T07:11:02;40;30;18
54021;PMS7003;39936;51.058;17.220;2022-12-18T07:15:24;46;35;21
54021;PMS7003;39936;51.058;17.220;2022-12-18T07:19:08;48;36;20
54021;PMS7003;39936;51.058;17.220;2022-12-18T07:23:01;48;37;19
54021;PMS7003;39936;51.058;17.220;2022-12-18T07:26:11;37;26;15
54021;PMS7003;39936;51.058;17.220;2022-12-18T07:34:28;39;28;18
54021;PMS7003;39936;51.058;17.220;2022-12-18T07:38:48;39;29;17
54021;PMS7003;39936;51.058;17.220;2022-12-18T07:42:19;38;30;17
54021;PMS7003;39936;51.058;17.220;2022-12-18T07:46:39;51;38;23
54021;PMS7003;39936;51.058;17.220;2022-12-18T07:49:51;46;35;19
54021;PMS7003;39936;51.058;17.220;2022-12-18T07:54:00;48;36;20
54021;PMS7003;39936;51.058;17.220;2022-12-18T07:57:54;47;36;20
54021;PMS7003;39936;51.058;17.220;2022-12-18T08:01:13;39;27;18
54021;PMS7003;39936;51.058;17.220;2022-12-18T08:05:14;47;33;18
54021;PMS7003;39936;51.058;17.220;2022-12-18T08:08:51;45;34;19
54021;PMS7003;39936;51.058;17.220;2022-12-18T08:12:50;42;32;18
54021;PMS7003;39936;51.058;17.220;2022-12-18T08:16:01;36;31;15
54021;PMS7003;39936;51.058;17.220;2022-12-18T08:19:48;42;35;18
54021;PMS7003;39936;51.058;17.220;2022-12-18T08:23:28;44;34;19
54021;PMS7003;39936;51.058;17.220;2022-12-18T08:26:39;35;29;15
54021;PMS7003;39936;51.058;17.220;2022-12-18T08:30:35;37;29;17
54021;PMS7003;39936;51.058;17.220;2022-12-18T08:34:43;44;35;19
54021;PMS7003;39936;51.058;17.220;2022-12-18T08:38:06;31;24;16
54021;PMS7003;39936;51.058;17.220;2022-12-18T08:41:53;40;30;17
54021;PMS7003;39936;51.058;17.220;2022-12-18T08:45:15;44;37;21
54021;PMS7003;39936;51.058;17.220;2022-12-18T08:48:23;35;27;16
54021;PMS7003;39936;51.058;17.220;2022-12-18T08:56:14;28;23;16
54021;PMS7003;39936;51.058;17.220;2022-12-18T09:00:23;34;27;16
54021;PMS7003;39936;51.058;17.220;2022-12-18T09:04:42;34;26;14
54021;PMS7003;39936;51.058;17.220;2022-12-18T09:08:00;34;26;15
54021;PMS7003;39936;51.058;17.220;2022-12-18T09:19:02;30;22;13
54021;PMS7003;39936;51.058;17.220;2022-12-18T09:22:15;34;25;14
54021;PMS7003;39936;51.058;17.220;2022-12-18T09:25:28;44;32;18
54021;PMS7003;39936;51.058;17.220;2022-12-18T09:28:45;35;25;14
54021;PMS7003;39936;51.058;17.220;2022-12-18T09:32:16;31;24;13
54021;PMS7003;39936;51.058;17.220;2022-12-18T09:35:23;37;31;19
54021;PMS7003;39936;51.058;17.220;2022-12-18T09:38:59;42;30;19
54021;PMS7003;39936;51.058;17.220;2022-12-18T09:42:27;34;28;18
54021;PMS7003;39936;51.058;17.220;2022-12-18T09:45:50;43;36;22
54021;PMS7003;39936;51.058;17.220;2022-12-18T09:49:02;42;31;20
54021;PMS7003;39936;51.058;17.220;2022-12-18T09:52:45;37;27;16
54021;PMS7003;39936;51.058;17.220;2022-12-18T09:56:41;35;30;20
54021;PMS7003;39936;51.058;17.220;2022-12-18T10:04:48;29;25;15
54021;PMS7003;39936;51.058;17.220;2022-12-18T10:16:03;53;40;23
54021;PMS7003;39936;51.058;17.220;2022-12-18T10:28:15;60;47;29
54021;PMS7003;39936;51.058;17.220;2022-12-18T10:31:35;38;31;19
54021;PMS7003;39936;51.058;17.220;2022-12-18T10:35:09;40;34;18
54021;PMS7003;39936;51.058;17.220;2022-12-18T10:39:13;35;31;18
54021;PMS7003;39936;51.058;17.220;2022-12-18T10:42:18;38;30;18
54021;PMS7003;39936;51.058;17.220;2022-12-18T10:49:42;41;32;18
54021;PMS7003;39936;51.058;17.220;2022-12-18T10:53:40;41;33;18
54021;PMS7003;39936;51.058;17.220;2022-12-18T11:05:34;40;36;22
54021;PMS7003;39936;51.058;17.220;2022-12-18T11:09:02;46;38;22
54021;PMS7003;39936;51.058;17.220;2022-12-18T11:16:27;42;36;22
54021;PMS7003;39936;51.058;17.220;2022-12-18T11:20:01;55;40;25
54021;PMS7003;39936;51.058;17.220;2022-12-18T11:23:24;49;38;23
54021;PMS7003;39936;51.058;17.220;2022-12-18T11:26:35;54;38;23
54021;PMS7003;39936;51.058;17.220;2022-12-18T11:30:24;44;34;20
54021;PMS7003;39936;51.058;17.220;2022-12-18T11:38:24;56;43;26
54021;PMS7003;39936;51.058;17.220;2022-12-18T11:46:33;47;35;20
54021;PMS7003;39936;51.058;17.220;2022-12-18T11:50:13;45;34;19
54021;PMS7003;39936;51.058;17.220;2022-12-18T11:53:51;39;26;18
54021;PMS7003;39936;51.058;17.220;2022-12-18T11:57:10;38;32;18
54021;PMS7003;39936;51.058;17.220;2022-12-18T12:00:31;47;36;21
54021;PMS7003;39936;51.058;17.220;2022-12-18T12:07:47;51;37;21
54021;PMS7003;39936;51.058;17.220;2022-12-18T12:23:23;55;41;24
54021;PMS7003;39936;51.058;17.220;2022-12-18T12:35:38;41;34;19
54021;PMS7003;39936;51.058;17.220;2022-12-18T12:39:23;44;35;21
54021;PMS7003;39936;51.058;17.220;2022-12-18T12:46:36;43;33;20
54021;PMS7003;39936;51.058;17.220;2022-12-18T12:50:18;34;30;18
54021;PMS7003;39936;51.058;17.220;2022-12-18T12:53:50;39;31;19
54021;PMS7003;39936;51.058;17.220;2022-12-18T12:57:30;41;31;18
54021;PMS7003;39936;51.058;17.220;2022-12-18T13:01:09;40;34;18
54021;PMS7003;39936;51.058;17.220;2022-12-18T13:05:12;41;33;21
54021;PMS7003;39936;51.058;17.220;2022-12-18T13:16:43;44;36;21
54021;PMS7003;39936;51.058;17.220;2022-12-18T13:20:17;52;40;24
54021;PMS7003;39936;51.058;17.220;2022-12-18T13:23:28;51;41;27
54021;PMS7003;39936;51.058;17.220;2022-12-18T13:47:00;55;41;24
54021;PMS7003;39936;51.058;17.220;2022-12-18T13:50:39;61;44;26
54021;PMS7003;39936;51.058;17.220;2022-12-18T13:54:20;45;37;22
54021;PMS7003;39936;51.058;17.220;2022-12-18T14:01:55;44;35;22
54021;PMS7003;39936;51.058;17.220;2022-12-18T14:06:19;62;41;22
54021;PMS7003;39936;51.058;17.220;2022-12-18T14:09:59;57;42;23
54021;PMS7003;39936;51.058;17.220;2022-12-18T14:13:31;44;34;21
54021;PMS7003;39936;51.058;17.220;2022-12-18T14:17:10;51;41;22
54021;PMS7003;39936;51.058;17.220;2022-12-18T14:21:03;57;42;24
54021;PMS7003;39936;51.058;17.220;2022-12-18T14:25:32;84;61;40
54021;PMS7003;39936;51.058;17.220;2022-12-18T14:28:43;65;50;31
54021;PMS7003;39936;51.058;17.220;2022-12-18T14:32:20;56;43;25
54021;PMS7003;39936;51.058;17.220;2022-12-18T14:35:38;54;41;23
54021;PMS7003;39936;51.058;17.220;2022-12-18T14:39:00;52;39;24
54021;PMS7003;39936;51.058;17.220;2022-12-18T14:42:47;55;40;25
54021;PMS7003;39936;51.058;17.220;2022-12-18T14:46:03;56;42;24
54021;PMS7003;39936;51.058;17.220;2022-12-18T14:49:36;61;45;25
54021;PMS7003;39936;51.058;17.220;2022-12-18T14:53:46;61;44;25
54021;PMS7003;39936;51.058;17.220;2022-12-18T14:57:39;65;44;28
54021;PMS7003;39936;51.058;17.220;2022-12-18T15:01:17;62;43;24
54021;PMS7003;39936;51.058;17.220;2022-12-18T15:13:08;45;33;19
54021;PMS7003;39936;51.058;17.220;2022-12-18T15:16:22;44;36;20
54021;PMS7003;39936;51.058;17.220;2022-12-18T15:19:59;53;40;26
54021;PMS7003;39936;51.058;17.220;2022-12-18T15:27:44;60;44;25
54021;PMS7003;39936;51.058;17.220;2022-12-18T15:31:02;63;45;28
54021;PMS7003;39936;51.058;17.220;2022-12-18T15:34:20;64;44;27
54021;PMS7003;39936;51.058;17.220;2022-12-18T15:38:50;58;45;28
54021;PMS7003;39936;51.058;17.220;2022-12-18T15:41:58;50;37;25
54021;PMS7003;39936;51.058;17.220;2022-12-18T15:45:50;57;42;25
54021;PMS7003;39936;51.058;17.220;2022-12-18T15:49:05;54;39;23
54021;PMS7003;39936;51.058;17.220;2022-12-18T15:52:46;52;38;23
54021;PMS7003;39936;51.058;17.220;2022-12-18T15:56:13;48;36;21
54021;PMS7003;39936;51.058;17.220;2022-12-18T16:00:04;46;35;21
54021;PMS7003;39936;51.058;17.220;2022-12-18T16:03:23;51;41;25
54021;PMS7003;39936;51.058;17.220;2022-12-18T16:06:49;45;30;16
54021;PMS7003;39936;51.058;17.220;2022-12-18T16:10:25;49;38;23
54021;PMS7003;39936;51.058;17.220;2022-12-18T16:13:45;49;38;22
54021;PMS7003;39936;51.058;17.220;2022-12-18T16:17:19;52;37;24
54021;PMS7003;39936;51.058;17.220;2022-12-18T16:21:00;50;37;22
54021;PMS7003;39936;51.058;17.220;2022-12-18T16:24:59;58;41;26
54021;PMS7003;39936;51.058;17.220;2022-12-18T16:29:15;45;34;23
54021;PMS7003;39936;51.058;17.220;2022-12-18T16:32:31;53;40;24
54021;PMS7003;39936;51.058;17.220;2022-12-18T16:36:09;42;33;21
54021;PMS7003;39936;51.058;17.220;2022-12-18T16:39:46;49;38;23
54021;PMS7003;39936;51.058;17.220;2022-12-18T16:43:04;57;42;26
54021;PMS7003;39936;51.058;17.220;2022-12-18T16:46:13;57;44;25
54021;PMS7003;39936;51.058;17.220;2022-12-18T16:49:24;55;44;26
54021;PMS7003;39936;51.058;17.220;2022-12-18T16:52:52;71;55;35
54021;PMS7003;39936;51.058;17.220;2022-12-18T16:56:31;76;58;36
54021;PMS7003;39936;51.058;17.220;2022-12-18T17:00:31;79;58;36
54021;PMS7003;39936;51.058;17.220;2022-12-18T17:07:57;74;56;34
54021;PMS7003;39936;51.058;17.220;2022-12-18T17:11:32;80;60;38
54021;PMS7003;39936;51.058;17.220;2022-12-18T17:14:50;82;62;37
54021;PMS7003;39936;51.058;17.220;2022-12-18T17:18:17;81;63;39
54021;PMS7003;39936;51.058;17.220;2022-12-18T17:22:00;76;57;34
54021;PMS7003;39936;51.058;17.220;2022-12-18T17:26:14;77;56;34
54021;PMS7003;39936;51.058;17.220;2022-12-18T17:29:50;78;61;37
54021;PMS7003;39936;51.058;17.220;2022-12-18T17:33:50;79;61;37
54021;PMS7003;39936;51.058;17.220;2022-12-18T17:37:04;76;55;33
54021;PMS7003;39936;51.058;17.220;2022-12-18T17:41:05;75;56;33
54021;PMS7003;39936;51.058;17.220;2022-12-18T17:44:44;70;53;33
54021;PMS7003;39936;51.058;17.220;2022-12-18T17:48:15;68;47;29
54021;PMS7003;39936;51.058;17.220;2022-12-18T17:51:57;53;43;27
54021;PMS7003;39936;51.058;17.220;2022-12-18T17:55:31;57;43;26
54021;PMS7003;39936;51.058;17.220;2022-12-18T17:59:17;67;52;29
54021;PMS7003;39936;51.058;17.220;2022-12-18T18:02:56;57;42;25
54021;PMS7003;39936;51.058;17.220;2022-12-18T18:06:06;74;54;31
54021;PMS7003;39936;51.058;17.220;2022-12-18T18:09:40;78;55;33
54021;PMS7003;39936;51.058;17.220;2022-12-18T18:13:22;71;54;32
54021;PMS7003;39936;51.058;17.220;2022-12-18T18:17:25;65;49;30
54021;PMS7003;39936;51.058;17.220;2022-12-18T18:20:41;62;48;27
54021;PMS7003;39936;51.058;17.220;2022-12-18T18:24:03;69;49;29
54021;PMS7003;39936;51.058;17.220;2022-12-18T18:27:25;65;50;31
54021;PMS7003;39936;51.058;17.220;2022-12-18T18:30:36;67;51;30
54021;PMS7003;39936;51.058;17.220;2022-12-18T18:34:18;66;49;30
54021;PMS7003;39936;51.058;17.220;2022-12-18T18:37:57;77;58;35
54021;PMS7003;39936;51.058;17.220;2022-12-18T18:41:35;73;54;32
54021;PMS7003;39936;51.058;17.220;2022-12-18T18:44:56;78;58;34
54021;PMS7003;39936;51.058;17.220;2022-12-18T18:48:37;74;56;33
54021;PMS7003;39936;51.058;17.220;2022-12-18T18:52:19;68;53;33
54021;PMS7003;39936;51.058;17.220;2022-12-18T18:55:53;70;51;32
54021;PMS7003;39936;51.058;17.220;2022-12-18T18:59:28;71;52;31
54021;PMS7003;39936;51.058;17.220;2022-12-18T19:02:45;71;52;31
54021;PMS7003;39936;51.058;17.220;2022-12-18T19:06:43;71;52;31
54021;PMS7003;39936;51.058;17.220;2022-12-18T19:10:21;68;50;31
54021;PMS7003;39936;51.058;17.220;2022-12-18T19:13:34;66;51;31
54021;PMS7003;39936;51.058;17.220;2022-12-18T19:16:56;66;50;29
54021;PMS7003;39936;51.058;17.220;2022-12-18T19:20:43;77;53;33
54021;PMS7003;39936;51.058;17.220;2022-12-18T19:24:21;68;47;30
54021;PMS7003;39936;51.058;17.220;2022-12-18T19:27:45;65;52;31
54021;PMS7003;39936;51.058;17.220;2022-12-18T19:31:19;71;53;33
54021;PMS7003;39936;51.058;17.220;2022-12-18T19:34:48;76;55;34
54021;PMS7003;39936;51.058;17.220;2022-12-18T19:38:10;73;56;35
54021;PMS7003;39936;51.058;17.220;2022-12-18T19:41:26;68;47;29
54021;PMS7003;39936;51.058;17.220;2022-12-18T19:44:45;69;53;32
54021;PMS7003;39936;51.058;17.220;2022-12-18T19:48:51;74;53;32
54021;PMS7003;39936;51.058;17.220;2022-12-18T19:53:10;68;51;33
54021;PMS7003;39936;51.058;17.220;2022-12-18T19:56:50;75;55;33
54021;PMS7003;39936;51.058;17.220;2022-12-18T20:00:49;79;57;34
54021;PMS7003;39936;51.058;17.220;2022-12-18T20:04:56;79;58;35
54021;PMS7003;39936;51.058;17.220;2022-12-18T20:09:05;81;57;34
54021;PMS7003;39936;51.058;17.220;2022-12-18T20:12:26;79;59;34
54021;PMS7003;39936;51.058;17.220;2022-12-18T20:16:08;73;53;31
54021;PMS7003;39936;51.058;17.220;2022-12-18T20:19:21;72;53;33
54021;PMS7003;39936;51.058;17.220;2022-12-18T20:22:51;72;50;32
54021;PMS7003;39936;51.058;17.220;2022-12-18T20:26:05;72;53;33
54021;PMS7003;39936;51.058;17.220;2022-12-18T20:30:00;75;55;32
54021;PMS7003;39936;51.058;17.220;2022-12-18T20:33:47;78;57;34
54021;PMS7003;39936;51.058;17.220;2022-12-18T20:37:24;69;55;32
54021;PMS7003;39936;51.058;17.220;2022-12-18T20:40:58;68;51;30
54021;PMS7003;39936;51.058;17.220;2022-12-18T20:44:31;76;55;31
54021;PMS7003;39936;51.058;17.220;2022-12-18T20:48:01;71;54;34
54021;PMS7003;39936;51.058;17.220;2022-12-18T20:51:44;69;52;32
54021;PMS7003;39936;51.058;17.220;2022-12-18T20:55:18;72;54;33
54021;PMS7003;39936;51.058;17.220;2022-12-18T20:58:54;73;55;34
54021;PMS7003;39936;51.058;17.220;2022-12-18T21:06:35;69;53;33
54021;PMS7003;39936;51.058;17.220;2022-12-18T21:10:24;63;50;30
54021;PMS7003;39936;51.058;17.220;2022-12-18T21:14:16;76;56;33
54021;PMS7003;39936;51.058;17.220;2022-12-18T21:17:50;80;58;36
54021;PMS7003;39936;51.058;17.220;2022-12-18T21:21:28;69;52;32
54021;PMS7003;39936;51.058;17.220;2022-12-18T21:25:08;78;58;35
54021;PMS7003;39936;51.058;17.220;2022-12-18T21:28:28;79;58;34
54021;PMS7003;39936;51.058;17.220;2022-12-18T21:36:38;75;55;31
54021;PMS7003;39936;51.058;17.220;2022-12-18T21:40:38;69;54;32
54021;PMS7003;39936;51.058;17.220;2022-12-18T21:44:09;59;46;24
54021;PMS7003;39936;51.058;17.220;2022-12-18T21:47:39;74;57;32
54021;PMS7003;39936;51.058;17.220;2022-12-18T21:51:12;72;53;32
54021;PMS7003;39936;51.058;17.220;2022-12-18T21:55:07;66;50;32
54021;PMS7003;39936;51.058;17.220;2022-12-18T21:58:37;68;53;33
54021;PMS7003;39936;51.058;17.220;2022-12-18T22:02:15;73;54;34
54021;PMS7003;39936;51.058;17.220;2022-12-18T22:06:02;78;60;36
54021;PMS7003;39936;51.058;17.220;2022-12-18T22:09:19;79;56;33
54021;PMS7003;39936;51.058;17.220;2022-12-18T22:12:45;87;65;37
54021;PMS7003;39936;51.058;17.220;2022-12-18T22:16:01;84;60;38
54021;PMS7003;39936;51.058;17.220;2022-12-18T22:19:19;77;57;35
54021;PMS7003;39936;51.058;17.220;2022-12-18T22:22:36;74;56;35
54021;PMS7003;39936;51.058;17.220;2022-12-18T22:26:12;74;55;33
54021;PMS7003;39936;51.058;17.220;2022-12-18T22:29:41;72;54;35
54021;PMS7003;39936;51.058;17.220;2022-12-18T22:33:46;75;55;34
54021;PMS7003;39936;51.058;17.220;2022-12-18T22:37:47;75;55;34
54021;PMS7003;39936;51.058;17.220;2022-12-18T22:41:10;81;58;35
54021;PMS7003;39936;51.058;17.220;2022-12-18T22:44:48;83;60;36
54021;PMS7003;39936;51.058;17.220;2022-12-18T22:48:36;74;54;32
54021;PMS7003;39936;51.058;17.220;2022-12-18T22:52:16;77;56;34
54021;PMS7003;39936;51.058;17.220;2022-12-18T22:59:49;81;58;36
54021;PMS7003;39936;51.058;17.220;2022-12-18T23:03:41;76;58;35
54021;PMS7003;39936;51.058;17.220;2022-12-18T23:07:13;83;62;39
54021;PMS7003;39936;51.058;17.220;2022-12-18T23:10:47;82;61;38
54021;PMS7003;39936;51.058;17.220;2022-12-18T23:14:48;83;64;39
54021;PMS7003;39936;51.058;17.220;2022-12-18T23:18:23;88;66;39
54021;PMS7003;39936;51.058;17.220;2022-12-18T23:22:42;98;71;41
54021;PMS7003;39936;51.058;17.220;2022-12-18T23:26:22;90;67;40
54021;PMS7003;39936;51.058;17.220;2022-12-18T23:29:51;95;67;42
54021;PMS7003;39936;51.058;17.220;2022-12-18T23:33:29;93;69;42
54021;PMS7003;39936;51.058;17.220;2022-12-18T23:37:20;90;65;40
54021;PMS7003;39936;51.058;17.220;2022-12-18T23:40:39;91;68;41
54021;PMS7003;39936;51.058;17.220;2022-12-18T23:44:10;89;64;39
54021;PMS7003;39936;51.058;17.220;2022-12-18T23:47:29;87;66;41
54021;PMS7003;39936;51.058;17.220;2022-12-18T23:51:04;90;67;42
54021;PMS7003;39936;51.058;17.220;2022-12-18T23:54:35;97;70;45
54021;PMS7003;39936;51.058;17.220;2022-12-18T23:58:31;90;67;41
